Cassiopeia Leader — 7JZI — position and weather

sailwx.info

Track history (hours):
 
Tides and Currents Weather Stations Pressure Air Temp Water Temp Dewpoint Dewpoint Depression Visibility Wind Speed Wind Dir Waves Ship Positions

Cassiopeia Leader

Last reported at 2018-Jun-20 15:24 UTC. Time now 2018-Jun-23 02:55 UTC.
Position N 01°37' E 102°59'.

Length 200 m; draft 9.1 m.

Type: Cargo ship. MMSI: 431013000.

Date/timePositionNaut miles runAvg speedWind from/ knotsBaromVisibWave heightAir tempDewpointWater temp
2018-Jun-20 15:24N 01°37' E 102°59'716.8
2018-Jun-20 15:00N 01°33' E 103°04'918.0
2018-Jun-20 14:30N 01°27' E 103°11'917.4
2018-Jun-20 13:59N 01°21' E 103°18'816.0
2018-Jun-20 13:30N 01°16' E 103°24'814.4
2018-Jun-20 12:59N 01°13' E 103°31'511.6
2018-Jun-20 12:30N 01°11' E 103°36'612.4
2018-Jun-20 12:00N 01°10' E 103°42'611.5
2018-Jun-20 11:30N 01°10' E 103°48'611.4
2018-Jun-20 11:00N 01°13' E 103°53'4 9.0
2018-Jun-20 10:30N 01°15' E 103°57'2 4.2
2018-Jun-20 09:59N 01°17' E 103°58'0 0.0
2018-Jun-20 09:29N 01°17' E 103°58'0 0.1
2018-Jun-20 08:56N 01°17' E 103°58'0 0.0
2018-Jun-20 08:29N 01°17' E 103°58'0 0.1
2018-Jun-20 07:56N 01°17' E 103°58'0 0.0
2018-Jun-20 07:29N 01°17' E 103°58'0 0.0
2018-Jun-20 06:59N 01°17' E 103°58'0 0.0
2018-Jun-20 06:29N 01°17' E 103°58'0 0.0
2018-Jun-20 05:57N 01°17' E 103°58'0 0.0
2018-Jun-20 05:30N 01°17' E 103°58'0 0.0
2018-Jun-20 04:57N 01°17' E 103°58'0 0.0
2018-Jun-20 04:30N 01°17' E 103°58'0 0.0
2018-Jun-20 03:32N 01°17' E 103°58'0 0.0
2018-Jun-20 03:26N 01°17' E 103°58'0 0.0
2018-Jun-20 02:53N 01°17' E 103°58'0 0.0
2018-Jun-20 02:29N 01°17' E 103°58'0 0.1
2018-Jun-20 01:48N 01°17' E 103°58'0 0.0
2018-Jun-20 01:29N 01°17' E 103°58'0 0.0
2018-Jun-20 00:59N 01°17' E 103°58'0 0.0
2018-Jun-20 00:29N 01°17' E 103°58'0 0.0
2018-Jun-19 23:59N 01°17' E 103°58'0 0.0
2018-Jun-19 23:29N 01°17' E 103°58'0 0.0
2018-Jun-19 22:59N 01°17' E 103°58'0 0.0
2018-Jun-19 22:24N 01°17' E 103°58'0 0.0
2018-Jun-19 21:56N 01°17' E 103°58'0 0.0
2018-Jun-19 21:29N 01°17' E 103°58'0 0.0
2018-Jun-19 20:59N 01°17' E 103°58'0 0.0
2018-Jun-19 20:29N 01°17' E 103°58'0 0.0
2018-Jun-19 19:59N 01°17' E 103°58'0 0.1
2018-Jun-19 19:29N 01°17' E 103°58'0 0.0
2018-Jun-19 18:59N 01°17' E 103°58'0 0.0
2018-Jun-19 18:29N 01°17' E 103°58'0 0.0
2018-Jun-19 17:59N 01°17' E 103°58'0 0.0
2018-Jun-19 17:29N 01°17' E 103°58'0 0.0
2018-Jun-19 16:59N 01°17' E 103°58'0 0.0
2018-Jun-19 16:29N 01°17' E 103°58'0 0.0
2018-Jun-19 15:56N 01°17' E 103°58'0 0.0
2018-Jun-19 15:30N 01°17' E 103°58'0 0.0
2018-Jun-19 14:59N 01°17' E 103°58'0 0.0
2018-Jun-19 14:20N 01°17' E 103°58'0 0.0
2018-Jun-19 13:59N 01°17' E 103°58'0 0.0
2018-Jun-19 13:29N 01°17' E 103°58'0 0.0
2018-Jun-19 12:56N 01°17' E 103°58'0 0.0
2018-Jun-19 12:29N 01°17' E 103°58'0 0.0
2018-Jun-19 11:59N 01°17' E 103°58'0 0.0
2018-Jun-19 11:29N 01°17' E 103°58'0 0.0
2018-Jun-19 10:59N 01°17' E 103°58'0 0.1
2018-Jun-19 10:29N 01°17' E 103°58'0 0.1
2018-Jun-19 10:01N 01°17' E 103°58'1 2.1
2018-Jun-19 09:30N 01°16' E 103°57'510.3
2018-Jun-19 08:59N 01°13' E 103°52'4 8.0
2018-Jun-19 08:30N 01°12' E 103°48'510.7
2018-Jun-19 08:00N 01°16' E 103°45'1 1.1
2018-Jun-19 07:30N 01°17' E 103°45'0 0.0
2018-Jun-19 07:00N 01°17' E 103°45'0 0.0
2018-Jun-19 06:30N 01°17' E 103°45'0 0.0
2018-Jun-19 06:00N 01°17' E 103°45'0 0.0
2018-Jun-19 05:28N 01°17' E 103°45'0 0.0
2018-Jun-19 04:34N 01°17' E 103°45'0 0.0
2018-Jun-19 04:28N 01°17' E 103°45'0 0.0
2018-Jun-19 03:55N 01°17' E 103°45'0 0.0
2018-Jun-19 03:28N 01°17' E 103°45'0 0.0
2018-Jun-19 03:00N 01°17' E 103°45'0 0.0
2018-Jun-19 02:30N 01°17' E 103°45'0 0.0
2018-Jun-19 01:58N 01°17' E 103°45'0 0.0
2018-Jun-19 01:30N 01°17' E 103°45'0 0.0
2018-Jun-19 01:00N 01°17' E 103°45'0 0.0
2018-Jun-19 00:30N 01°17' E 103°45'0 0.0
2018-Jun-19 00:00N 01°17' E 103°45'0 0.0
2018-Jun-18 23:30N 01°17' E 103°45'0 0.0
2018-Jun-18 23:00N 01°17' E 103°45'0 0.0
2018-Jun-18 22:30N 01°17' E 103°45'0 0.0
2018-Jun-18 22:00N 01°17' E 103°45'0 0.0
2018-Jun-18 21:30N 01°17' E 103°45'0 0.0
2018-Jun-18 21:00N 01°17' E 103°45'0 0.0
2018-Jun-18 20:30N 01°17' E 103°45'0 0.0
2018-Jun-18 20:00N 01°17' E 103°45'0 0.0
2018-Jun-18 19:27N 01°17' E 103°45'0 0.0
2018-Jun-18 19:00N 01°17' E 103°45'0 0.0
2018-Jun-18 18:30N 01°17' E 103°45'0 0.0
2018-Jun-18 18:00N 01°17' E 103°45'0 0.0
2018-Jun-18 17:30N 01°17' E 103°45'0 0.0
2018-Jun-18 17:00N 01°17' E 103°45'0 0.0
2018-Jun-18 16:30N 01°17' E 103°45'0 0.0
2018-Jun-18 16:00N 01°17' E 103°45'0 0.0
2018-Jun-18 15:30N 01°17' E 103°45'0 0.1
2018-Jun-18 15:00N 01°17' E 103°45'0 0.1
2018-Jun-18 14:30N 01°17' E 103°45'0 0.1
2018-Jun-18 14:00N 01°17' E 103°45'0 0.1
2018-Jun-18 13:30N 01°17' E 103°45'0 0.0
2018-Jun-18 13:00N 01°17' E 103°45'0 0.0
2018-Jun-18 12:30N 01°17' E 103°45'0 0.0
2018-Jun-18 12:00N 01°17' E 103°45'0 0.0
2018-Jun-18 11:30N 01°17' E 103°45'0 0.0
2018-Jun-18 10:58N 01°17' E 103°45'0 0.0
2018-Jun-18 10:30N 01°17' E 103°45'0 0.8
2018-Jun-18 10:00N 01°17' E 103°45'5 9.2
2018-Jun-18 09:30N 01°13' E 103°48'510.6
2018-Jun-18 09:00N 01°13' E 103°53'3 5.0
2018-Jun-18 08:30N 01°14' E 103°55'5 9.8
2018-Jun-18 08:00N 01°16' E 104°00'612.5
2018-Jun-18 07:30N 01°16' E 104°06'714.1
2018-Jun-18 07:00N 01°17' E 104°13'815.9
2018-Jun-18 06:30N 01°20' E 104°21'714.9
2018-Jun-18 06:00N 01°25' E 104°26'814.8
2018-Jun-18 05:28N 01°31' E 104°32'  
Track history (hours):
 
Tides and Currents Weather Stations Pressure Air Temp Water Temp Dewpoint Dewpoint Depression Visibility Wind Speed Wind Dir Waves Ship Positions

Cassiopeia Leader

Last reported at 2018-Jun-20 15:24 UTC. Time now 2018-Jun-23 02:55 UTC.
Position N 01°37' E 102°59'.

Length 200 m; draft 9.1 m.

Type: Cargo ship. MMSI: 431013000.

Date/timePositionNaut miles runAvg speedWind from/ knotsBaromVisibWave heightAir tempDewpointWater temp
2018-Jun-20 15:24N 01°37' E 102°59'716.8
2018-Jun-20 15:00N 01°33' E 103°04'918.0
2018-Jun-20 14:30N 01°27' E 103°11'917.4
2018-Jun-20 13:59N 01°21' E 103°18'816.0
2018-Jun-20 13:30N 01°16' E 103°24'814.4
2018-Jun-20 12:59N 01°13' E 103°31'511.6
2018-Jun-20 12:30N 01°11' E 103°36'612.4
2018-Jun-20 12:00N 01°10' E 103°42'611.5
2018-Jun-20 11:30N 01°10' E 103°48'611.4
2018-Jun-20 11:00N 01°13' E 103°53'4 9.0
2018-Jun-20 10:30N 01°15' E 103°57'2 4.2
2018-Jun-20 09:59N 01°17' E 103°58'0 0.0
2018-Jun-20 09:29N 01°17' E 103°58'0 0.1
2018-Jun-20 08:56N 01°17' E 103°58'0 0.0
2018-Jun-20 08:29N 01°17' E 103°58'0 0.1
2018-Jun-20 07:56N 01°17' E 103°58'0 0.0
2018-Jun-20 07:29N 01°17' E 103°58'0 0.0
2018-Jun-20 06:59N 01°17' E 103°58'0 0.0
2018-Jun-20 06:29N 01°17' E 103°58'0 0.0
2018-Jun-20 05:57N 01°17' E 103°58'0 0.0
2018-Jun-20 05:30N 01°17' E 103°58'0 0.0
2018-Jun-20 04:57N 01°17' E 103°58'0 0.0
2018-Jun-20 04:30N 01°17' E 103°58'0 0.0
2018-Jun-20 03:32N 01°17' E 103°58'0 0.0
2018-Jun-20 03:26N 01°17' E 103°58'0 0.0
2018-Jun-20 02:53N 01°17' E 103°58'0 0.0
2018-Jun-20 02:29N 01°17' E 103°58'0 0.1
2018-Jun-20 01:48N 01°17' E 103°58'0 0.0
2018-Jun-20 01:29N 01°17' E 103°58'0 0.0
2018-Jun-20 00:59N 01°17' E 103°58'0 0.0
2018-Jun-20 00:29N 01°17' E 103°58'0 0.0
2018-Jun-19 23:59N 01°17' E 103°58'0 0.0
2018-Jun-19 23:29N 01°17' E 103°58'0 0.0
2018-Jun-19 22:59N 01°17' E 103°58'0 0.0
2018-Jun-19 22:24N 01°17' E 103°58'0 0.0
2018-Jun-19 21:56N 01°17' E 103°58'0 0.0
2018-Jun-19 21:29N 01°17' E 103°58'0 0.0
2018-Jun-19 20:59N 01°17' E 103°58'0 0.0
2018-Jun-19 20:29N 01°17' E 103°58'0 0.0
2018-Jun-19 19:59N 01°17' E 103°58'0 0.1
2018-Jun-19 19:29N 01°17' E 103°58'0 0.0
2018-Jun-19 18:59N 01°17' E 103°58'0 0.0
2018-Jun-19 18:29N 01°17' E 103°58'0 0.0
2018-Jun-19 17:59N 01°17' E 103°58'0 0.0
2018-Jun-19 17:29N 01°17' E 103°58'0 0.0
2018-Jun-19 16:59N 01°17' E 103°58'0 0.0
2018-Jun-19 16:29N 01°17' E 103°58'0 0.0
2018-Jun-19 15:56N 01°17' E 103°58'0 0.0
2018-Jun-19 15:30N 01°17' E 103°58'0 0.0
2018-Jun-19 14:59N 01°17' E 103°58'0 0.0
2018-Jun-19 14:20N 01°17' E 103°58'0 0.0
2018-Jun-19 13:59N 01°17' E 103°58'0 0.0
2018-Jun-19 13:29N 01°17' E 103°58'0 0.0
2018-Jun-19 12:56N 01°17' E 103°58'0 0.0
2018-Jun-19 12:29N 01°17' E 103°58'0 0.0
2018-Jun-19 11:59N 01°17' E 103°58'0 0.0
2018-Jun-19 11:29N 01°17' E 103°58'0 0.0
2018-Jun-19 10:59N 01°17' E 103°58'0 0.1
2018-Jun-19 10:29N 01°17' E 103°58'0 0.1
2018-Jun-19 10:01N 01°17' E 103°58'1 2.1
2018-Jun-19 09:30N 01°16' E 103°57'510.3
2018-Jun-19 08:59N 01°13' E 103°52'4 8.0
2018-Jun-19 08:30N 01°12' E 103°48'510.7
2018-Jun-19 08:00N 01°16' E 103°45'1 1.1
2018-Jun-19 07:30N 01°17' E 103°45'0 0.0
2018-Jun-19 07:00N 01°17' E 103°45'0 0.0
2018-Jun-19 06:30N 01°17' E 103°45'0 0.0
2018-Jun-19 06:00N 01°17' E 103°45'0 0.0
2018-Jun-19 05:28N 01°17' E 103°45'0 0.0
2018-Jun-19 04:34N 01°17' E 103°45'0 0.0
2018-Jun-19 04:28N 01°17' E 103°45'0 0.0
2018-Jun-19 03:55N 01°17' E 103°45'0 0.0
2018-Jun-19 03:28N 01°17' E 103°45'0 0.0
2018-Jun-19 03:00N 01°17' E 103°45'0 0.0
2018-Jun-19 02:30N 01°17' E 103°45'0 0.0
2018-Jun-19 01:58N 01°17' E 103°45'0 0.0
2018-Jun-19 01:30N 01°17' E 103°45'0 0.0
2018-Jun-19 01:00N 01°17' E 103°45'0 0.0
2018-Jun-19 00:30N 01°17' E 103°45'0 0.0
2018-Jun-19 00:00N 01°17' E 103°45'0 0.0
2018-Jun-18 23:30N 01°17' E 103°45'0 0.0
2018-Jun-18 23:00N 01°17' E 103°45'0 0.0
2018-Jun-18 22:30N 01°17' E 103°45'0 0.0
2018-Jun-18 22:00N 01°17' E 103°45'0 0.0
2018-Jun-18 21:30N 01°17' E 103°45'0 0.0
2018-Jun-18 21:00N 01°17' E 103°45'0 0.0
2018-Jun-18 20:30N 01°17' E 103°45'0 0.0
2018-Jun-18 20:00N 01°17' E 103°45'0 0.0
2018-Jun-18 19:27N 01°17' E 103°45'0 0.0
2018-Jun-18 19:00N 01°17' E 103°45'0 0.0
2018-Jun-18 18:30N 01°17' E 103°45'0 0.0
2018-Jun-18 18:00N 01°17' E 103°45'0 0.0
2018-Jun-18 17:30N 01°17' E 103°45'0 0.0
2018-Jun-18 17:00N 01°17' E 103°45'0 0.0
2018-Jun-18 16:30N 01°17' E 103°45'0 0.0
2018-Jun-18 16:00N 01°17' E 103°45'0 0.0
2018-Jun-18 15:30N 01°17' E 103°45'0 0.1
2018-Jun-18 15:00N 01°17' E 103°45'0 0.1
2018-Jun-18 14:30N 01°17' E 103°45'0 0.1
2018-Jun-18 14:00N 01°17' E 103°45'0 0.1
2018-Jun-18 13:30N 01°17' E 103°45'0 0.0
2018-Jun-18 13:00N 01°17' E 103°45'0 0.0
2018-Jun-18 12:30N 01°17' E 103°45'0 0.0
2018-Jun-18 12:00N 01°17' E 103°45'0 0.0
2018-Jun-18 11:30N 01°17' E 103°45'0 0.0
2018-Jun-18 10:58N 01°17' E 103°45'0 0.0
2018-Jun-18 10:30N 01°17' E 103°45'0 0.8
2018-Jun-18 10:00N 01°17' E 103°45'5 9.2
2018-Jun-18 09:30N 01°13' E 103°48'510.6
2018-Jun-18 09:00N 01°13' E 103°53'3 5.0
2018-Jun-18 08:30N 01°14' E 103°55'5 9.8
2018-Jun-18 08:00N 01°16' E 104°00'612.5
2018-Jun-18 07:30N 01°16' E 104°06'714.1
2018-Jun-18 07:00N 01°17' E 104°13'815.9
2018-Jun-18 06:30N 01°20' E 104°21'714.9
2018-Jun-18 06:00N 01°25' E 104°26'814.8
2018-Jun-18 05:28N 01°31' E 104°32'  

Dump ship's entire track history